createdAt,value
2019-03-04T00:00:10.672Z,47.06
2019-03-04T00:01:10.661Z,47.14
2019-03-04T00:02:10.652Z,46.10
2019-03-04T00:03:10.639Z,45.45
2019-03-04T00:04:10.583Z,45.35
2019-03-04T00:05:10.619Z,43.93
2019-03-04T00:06:10.612Z,44.64
2019-03-04T00:07:10.599Z,43.62
2019-03-04T00:08:10.586Z,44.54
2019-03-04T00:09:10.579Z,44.97
2019-03-04T00:10:10.565Z,42.04
2019-03-04T00:11:10.558Z,38.64
2019-03-04T00:12:10.544Z,48.10
2019-03-04T00:13:10.538Z,45.05
2019-03-04T00:14:10.523Z,44.42
2019-03-04T00:15:10.514Z,46.02
2019-03-04T00:16:10.503Z,44.90
2019-03-04T00:17:10.492Z,44.90
2019-03-04T00:18:10.478Z,38.95
2019-03-04T00:19:10.468Z,42.83
2019-03-04T00:20:10.460Z,41.43
2019-03-04T00:21:10.448Z,41.26
2019-03-04T00:22:10.354Z,40.57
2019-03-04T00:23:10.427Z,40.91
2019-03-04T00:24:10.424Z,43.71
2019-03-04T00:25:10.409Z,43.34
2019-03-04T00:26:10.394Z,43.81
2019-03-04T00:27:10.386Z,45.98
2019-03-04T00:28:10.373Z,44.77
2019-03-04T00:29:10.368Z,46.02
2019-03-04T00:30:10.354Z,46.86
2019-03-04T00:31:10.343Z,48.55
2019-03-04T00:32:10.331Z,48.99
2019-03-04T00:33:10.323Z,48.49
2019-03-04T00:34:10.405Z,49.96
2019-03-04T00:35:10.303Z,50.50
2019-03-04T00:36:10.291Z,51.34
2019-03-04T00:37:10.287Z,52.37
2019-03-04T00:38:10.269Z,53.09
2019-03-04T00:39:10.264Z,49.18
2019-03-04T00:41:10.238Z,54.45
2019-03-04T00:42:10.227Z,52.29
2019-03-04T00:43:10.219Z,51.03
2019-03-04T00:44:10.209Z,51.36
2019-03-04T00:45:10.195Z,56.18
2019-03-04T00:46:10.185Z,53.25
2019-03-04T00:47:10.173Z,52.42
2019-03-04T00:48:10.164Z,50.24
2019-03-04T00:50:10.169Z,51.12
2019-03-04T00:51:10.217Z,48.65
2019-03-04T00:52:10.122Z,47.44
2019-03-04T00:53:10.112Z,48.39
2019-03-04T00:54:10.332Z,52.99
2019-03-04T00:55:10.092Z,56.23
2019-03-04T00:56:10.083Z,55.66
2019-03-04T00:57:10.070Z,50.86
2019-03-04T00:58:10.057Z,50.56
2019-03-04T00:59:10.051Z,49.29
2019-03-04T01:00:10.085Z,48.10
2019-03-04T01:01:10.041Z,47.24
2019-03-04T01:02:10.018Z,46.10
2019-03-04T01:03:10.007Z,45.37
2019-03-04T01:04:10.000Z,43.44
2019-03-04T01:05:09.988Z,44.15
2019-03-04T01:06:09.976Z,40.91
2019-03-04T01:07:09.964Z,40.93
2019-03-04T01:08:09.953Z,39.52
2019-03-04T01:09:10.043Z,38.36
2019-03-04T01:10:09.933Z,39.63
2019-03-04T01:11:09.924Z,45.48
2019-03-04T01:12:09.910Z,41.42
2019-03-04T01:13:09.905Z,43.81
2019-03-04T01:14:09.958Z,43.46
2019-03-04T01:15:09.967Z,45.37
2019-03-04T01:16:10.223Z,47.15
2019-03-04T01:17:09.858Z,51.66
2019-03-04T01:18:09.848Z,52.46
2019-03-04T01:19:09.838Z,46.70
2019-03-04T01:20:09.827Z,48.41
2019-03-04T01:21:09.818Z,45.78
2019-03-04T01:22:09.807Z,46.80
2019-03-04T01:23:09.794Z,44.69
2019-03-04T01:24:09.785Z,46.15
2019-03-04T01:25:09.773Z,46.99
2019-03-04T01:26:09.764Z,50.73
2019-03-04T01:27:09.754Z,57.46
2019-03-04T01:28:09.741Z,52.38
2019-03-04T01:29:09.729Z,51.02
2019-03-04T01:30:09.722Z,52.44
2019-03-04T01:31:09.710Z,50.95
2019-03-04T01:32:09.703Z,50.72
2019-03-04T01:33:09.689Z,50.60
2019-03-04T01:34:09.678Z,48.28
2019-03-04T01:35:09.668Z,50.28
2019-03-04T01:36:09.657Z,47.17
2019-03-04T01:37:09.652Z,47.68
2019-03-04T01:38:09.634Z,48.60
2019-03-04T01:39:09.625Z,45.83
2019-03-04T01:40:09.615Z,46.85
2019-03-04T01:41:09.604Z,47.84
2019-03-04T01:42:09.594Z,46.98
2019-03-04T01:43:09.586Z,47.08
2019-03-04T01:44:09.572Z,46.45
2019-03-04T01:45:09.496Z,46.53
2019-03-04T01:46:09.553Z,46.39
2019-03-04T01:47:09.541Z,45.45
2019-03-04T01:48:09.534Z,45.12
2019-03-04T01:49:09.523Z,45.23
2019-03-04T01:50:09.506Z,44.21
2019-03-04T01:51:09.501Z,40.38
2019-03-04T01:52:09.567Z,40.76
2019-03-04T01:53:09.478Z,42.79
2019-03-04T01:54:09.468Z,44.20
2019-03-04T01:55:09.713Z,46.92
2019-03-04T01:56:09.448Z,47.37
2019-03-04T01:57:09.437Z,48.54
2019-03-04T01:58:09.427Z,49.10
2019-03-04T01:59:09.419Z,49.25
2019-03-04T02:00:09.408Z,50.40
2019-03-04T02:01:09.396Z,51.33
2019-03-04T02:02:09.384Z,52.19
2019-03-04T02:03:09.379Z,54.68
2019-03-04T02:04:09.364Z,55.12
2019-03-04T02:05:09.353Z,54.43
2019-03-04T02:06:09.343Z,55.15
2019-03-04T02:07:09.330Z,57.59
2019-03-04T02:08:09.325Z,55.27
2019-03-04T02:09:09.313Z,54.18
2019-03-04T02:10:09.300Z,51.58
2019-03-04T02:11:09.291Z,50.95
2019-03-04T02:12:09.279Z,50.10
2019-03-04T02:13:09.267Z,53.77
2019-03-04T02:14:09.258Z,49.03
2019-03-04T02:15:09.249Z,47.58
2019-03-04T02:16:09.239Z,48.78
2019-03-04T02:17:09.230Z,48.22
2019-03-04T02:18:09.214Z,48.87
2019-03-04T02:19:09.208Z,47.68
2019-03-04T02:20:09.196Z,43.85
2019-03-04T02:21:09.184Z,38.75
2019-03-04T02:22:09.175Z,37.34
2019-03-04T02:23:09.163Z,37.86
2019-03-04T02:24:09.152Z,39.53
2019-03-04T02:25:09.146Z,41.18
2019-03-04T02:26:09.136Z,43.36
2019-03-04T02:27:09.207Z,45.01
2019-03-04T02:28:09.111Z,43.59
2019-03-04T02:29:09.100Z,43.81
2019-03-04T02:30:09.096Z,43.60
2019-03-04T02:31:09.078Z,43.73
2019-03-04T02:32:09.073Z,45.06
2019-03-04T02:33:09.063Z,44.65
2019-03-04T02:34:09.046Z,44.34
2019-03-04T02:35:09.035Z,45.44
2019-03-04T02:36:09.025Z,44.71
2019-03-04T02:37:09.015Z,44.09
2019-03-04T02:38:09.004Z,43.56
2019-03-04T02:39:08.995Z,43.56
2019-03-04T02:40:08.983Z,43.67
2019-03-04T02:41:09.023Z,43.85
2019-03-04T02:42:08.959Z,42.83
2019-03-04T02:43:08.948Z,42.81
2019-03-04T02:44:08.935Z,42.38
2019-03-04T02:45:08.928Z,41.02
2019-03-04T02:46:08.950Z,41.30
2019-03-04T02:47:09.213Z,40.15
2019-03-04T02:48:08.897Z,39.52
2019-03-04T02:49:08.951Z,39.52
2019-03-04T02:50:08.876Z,39.38
2019-03-04T02:51:08.863Z,39.48
2019-03-04T02:52:08.857Z,37.62
2019-03-04T02:53:08.842Z,36.57
2019-03-04T02:54:08.832Z,36.05
2019-03-04T02:55:08.822Z,35.21
2019-03-04T02:56:09.211Z,36.47
2019-03-04T02:57:08.899Z,33.02
2019-03-04T02:58:08.890Z,34.61
2019-03-04T02:59:08.787Z,34.30
2019-03-04T03:00:08.873Z,34.60
2019-03-04T03:01:08.759Z,34.18
2019-03-04T03:02:08.751Z,33.16
2019-03-04T03:03:08.745Z,33.86
2019-03-04T03:04:08.733Z,32.54
2019-03-04T03:05:08.724Z,32.64
2019-03-04T03:06:08.710Z,32.62
2019-03-04T03:07:08.695Z,32.52
2019-03-04T03:08:08.688Z,33.33
2019-03-04T03:09:08.680Z,32.29
2019-03-04T03:10:08.667Z,31.99
2019-03-04T03:11:08.676Z,32.09
2019-03-04T03:12:08.644Z,32.29
2019-03-04T03:13:08.636Z,32.58
2019-03-04T03:14:08.624Z,32.58
2019-03-04T03:15:08.612Z,32.61
2019-03-04T03:16:08.606Z,33.44
2019-03-04T03:17:08.591Z,34.49
2019-03-04T03:18:08.585Z,36.03
2019-03-04T03:19:08.572Z,36.87
2019-03-04T03:20:08.557Z,36.79
2019-03-04T03:21:08.548Z,36.79
2019-03-04T03:22:08.536Z,36.94
2019-03-04T03:23:08.525Z,36.32
2019-03-04T03:24:08.514Z,35.68
2019-03-04T03:25:08.502Z,34.74
2019-03-04T03:26:08.497Z,33.30
2019-03-04T03:27:08.482Z,32.56
2019-03-04T03:28:08.474Z,32.64
2019-03-04T03:29:08.459Z,31.93
2019-03-04T03:30:08.450Z,31.11
2019-03-04T03:31:08.441Z,31.09
2019-03-04T03:32:08.436Z,31.29
2019-03-04T03:33:08.421Z,31.38
2019-03-04T03:34:08.409Z,30.65
2019-03-04T03:35:09.035Z,30.05
2019-03-04T03:36:08.385Z,29.53
2019-03-04T03:37:08.378Z,28.71
2019-03-04T03:38:08.365Z,29.51
2019-03-04T03:39:08.405Z,29.40
2019-03-04T03:40:08.346Z,28.78
2019-03-04T03:41:08.334Z,28.66
2019-03-04T03:42:08.329Z,27.86
2019-03-04T03:43:08.321Z,27.25
2019-03-04T03:44:08.303Z,26.84
2019-03-04T03:45:08.297Z,25.04
2019-03-04T03:46:08.291Z,25.63
2019-03-04T03:47:08.271Z,24.83
2019-03-04T03:48:08.271Z,24.92
2019-03-04T03:49:08.253Z,27.02
2019-03-04T03:50:08.249Z,27.00
2019-03-04T03:51:08.236Z,26.20
2019-03-04T03:52:08.320Z,26.12
2019-03-04T03:53:08.213Z,25.92
2019-03-04T03:54:08.202Z,26.33
2019-03-04T03:55:08.189Z,26.12
2019-03-04T03:56:08.179Z,26.01
2019-03-04T03:57:08.268Z,25.32
2019-03-04T03:58:08.233Z,25.52
2019-03-04T03:59:08.149Z,25.61
2019-03-04T04:00:08.143Z,24.21
2019-03-04T04:01:08.126Z,24.61
2019-03-04T04:02:08.119Z,25.61
2019-03-04T04:03:08.105Z,24.31
2019-03-04T04:04:08.107Z,23.22
2019-03-04T04:05:08.082Z,23.32
2019-03-04T04:06:08.078Z,23.12
2019-03-04T04:07:08.147Z,22.71
2019-03-04T04:08:08.055Z,22.22
2019-03-04T04:09:08.043Z,23.31
2019-03-04T04:10:08.031Z,22.61
2019-03-04T04:11:08.020Z,22.41
2019-03-04T04:12:08.008Z,22.19
2019-03-04T04:13:08.014Z,21.70
2019-03-04T04:14:07.991Z,22.08
2019-03-04T04:15:07.977Z,21.67
2019-03-04T04:16:07.970Z,21.78
2019-03-04T04:17:07.960Z,22.07
2019-03-04T04:18:07.950Z,21.27
2019-03-04T04:19:07.938Z,21.69
2019-03-04T04:20:07.930Z,21.29
2019-03-04T04:21:07.916Z,21.28
2019-03-04T04:22:07.909Z,21.88
2019-03-04T04:23:07.893Z,21.27
2019-03-04T04:24:07.886Z,21.28
2019-03-04T04:25:07.875Z,21.97
2019-03-04T04:26:07.865Z,21.48
2019-03-04T04:27:07.853Z,21.78
2019-03-04T04:28:07.843Z,21.67
2019-03-04T04:29:07.852Z,21.75
2019-03-04T04:30:07.826Z,21.96
2019-03-04T04:31:07.811Z,22.03
2019-03-04T04:32:07.805Z,20.84
2019-03-04T04:33:07.793Z,21.75
2019-03-04T04:34:07.780Z,21.45
2019-03-04T04:35:07.770Z,21.56
2019-03-04T04:36:07.739Z,22.55
2019-03-04T04:37:07.746Z,22.34
2019-03-04T04:38:07.738Z,21.24
2019-03-04T04:39:07.726Z,21.53
2019-03-04T04:40:07.717Z,21.25
2019-03-04T04:41:07.705Z,21.45
2019-03-04T04:42:07.703Z,21.47
2019-03-04T04:43:07.690Z,21.48
2019-03-04T04:44:07.676Z,21.69
2019-03-04T04:45:07.667Z,21.50
2019-03-04T04:46:07.651Z,22.30
2019-03-04T04:47:07.642Z,22.49
2019-03-04T04:48:07.630Z,22.18
2019-03-04T04:49:07.620Z,22.87
2019-03-04T04:50:07.606Z,21.38
2019-03-04T04:51:07.599Z,21.86
2019-03-04T04:52:07.689Z,23.26
2019-03-04T04:53:07.678Z,22.77
2019-03-04T04:54:07.571Z,21.96
2019-03-04T04:55:07.559Z,21.47
2019-03-04T04:56:07.545Z,21.96
2019-03-04T04:57:07.542Z,22.29
2019-03-04T04:58:07.523Z,22.98
2019-03-04T04:59:07.514Z,21.78
2019-03-04T05:00:07.508Z,21.69
2019-03-04T05:01:07.491Z,22.88
2019-03-04T05:02:07.483Z,22.29
2019-03-04T05:03:07.475Z,22.18
2019-03-04T05:04:07.461Z,22.96
2019-03-04T05:05:07.458Z,22.86
2019-03-04T05:06:07.441Z,22.05
2019-03-04T05:07:07.434Z,22.04
2019-03-04T05:08:07.423Z,22.44
2019-03-04T05:09:07.414Z,23.23
2019-03-04T05:10:07.402Z,22.83
2019-03-04T05:11:07.387Z,22.45
2019-03-04T05:12:07.382Z,22.46
2019-03-04T05:13:07.366Z,23.48
2019-03-04T05:14:07.359Z,23.30
2019-03-04T05:15:07.348Z,23.62
2019-03-04T05:16:07.336Z,24.03
2019-03-04T05:17:07.326Z,24.63
2019-03-04T05:18:07.313Z,23.51
2019-03-04T05:19:07.302Z,23.51
2019-03-04T05:20:07.295Z,24.11
2019-03-04T05:21:07.286Z,26.80
2019-03-04T05:22:07.271Z,24.33
2019-03-04T05:23:07.262Z,24.04
2019-03-04T05:24:07.252Z,24.16
2019-03-04T05:25:07.243Z,24.98
2019-03-04T05:26:07.230Z,25.49
2019-03-04T05:27:07.220Z,25.30
2019-03-04T05:28:07.218Z,26.13
2019-03-04T05:29:07.205Z,26.33
2019-03-04T05:30:07.221Z,26.86
2019-03-04T05:31:07.178Z,27.38
2019-03-04T05:32:07.167Z,28.28
2019-03-04T05:33:07.159Z,31.39
2019-03-04T05:34:07.145Z,27.38
2019-03-04T05:35:07.219Z,27.28
2019-03-04T05:36:07.125Z,27.50
2019-03-04T05:37:07.116Z,27.82
2019-03-04T05:38:07.105Z,29.65
2019-03-04T05:39:07.093Z,29.85
2019-03-04T05:40:07.082Z,29.46
2019-03-04T05:41:07.077Z,29.17
2019-03-04T05:42:07.062Z,29.47
2019-03-04T05:43:07.054Z,30.49
2019-03-04T05:44:07.040Z,30.51
2019-03-04T05:45:07.030Z,30.21
2019-03-04T05:46:07.026Z,32.03
2019-03-04T05:47:07.011Z,30.62
2019-03-04T05:48:07.704Z,31.23
2019-03-04T05:49:07.011Z,31.64
2019-03-04T05:50:06.882Z,32.04
2019-03-04T05:51:06.967Z,32.45
2019-03-04T05:52:06.955Z,32.25
2019-03-04T05:53:07.048Z,32.57
2019-03-04T05:54:06.936Z,32.55
2019-03-04T05:55:08.831Z,32.55
2019-03-04T05:56:06.916Z,32.55
2019-03-04T05:57:06.904Z,33.24
2019-03-04T05:58:06.894Z,32.44
2019-03-04T05:59:06.790Z,32.54
2019-03-04T06:00:06.876Z,33.44
2019-03-04T06:01:06.868Z,32.65
2019-03-04T06:02:06.853Z,33.56
2019-03-04T06:03:06.842Z,32.65
2019-03-04T06:04:06.831Z,32.95
2019-03-04T06:05:06.825Z,33.46
2019-03-04T06:06:06.811Z,33.44
2019-03-04T06:07:06.804Z,32.54
2019-03-04T06:08:06.791Z,33.95
2019-03-04T06:09:06.779Z,33.53
2019-03-04T06:10:07.070Z,33.31
2019-03-04T06:11:06.761Z,33.09
2019-03-04T06:12:06.752Z,33.81
2019-03-04T06:13:06.741Z,32.91
2019-03-04T06:14:06.728Z,32.11
2019-03-04T06:15:06.721Z,32.81
2019-03-04T06:16:06.708Z,32.20
2019-03-04T06:17:06.700Z,32.62
2019-03-04T06:18:06.690Z,32.62
2019-03-04T06:19:06.677Z,32.42
2019-03-04T06:20:06.666Z,33.95
2019-03-04T06:21:06.659Z,33.73
2019-03-04T06:22:06.645Z,32.52
2019-03-04T06:23:06.637Z,32.72
2019-03-04T06:24:06.626Z,32.44
2019-03-04T06:25:07.483Z,33.55
2019-03-04T06:26:06.605Z,32.64
2019-03-04T06:27:06.595Z,33.55
2019-03-04T06:28:06.595Z,33.44
2019-03-04T06:29:06.575Z,35.44
2019-03-04T06:30:06.566Z,34.42
2019-03-04T06:31:06.555Z,34.11
2019-03-04T06:32:06.544Z,34.28
2019-03-04T06:33:06.831Z,33.19
2019-03-04T06:34:06.520Z,33.58
2019-03-04T06:35:06.515Z,34.06
2019-03-04T06:36:06.501Z,33.47
2019-03-04T06:37:06.494Z,32.86
2019-03-04T06:38:06.479Z,34.17
2019-03-04T06:39:06.472Z,31.65
2019-03-04T06:40:06.466Z,32.34
2019-03-04T06:41:06.448Z,32.24
2019-03-04T06:42:06.440Z,32.44
2019-03-04T06:43:06.430Z,32.75
2019-03-04T06:44:06.421Z,32.56
2019-03-04T06:45:06.408Z,34.37
2019-03-04T06:46:06.399Z,34.57
2019-03-04T06:47:06.393Z,34.87
2019-03-04T06:48:06.386Z,34.37
2019-03-04T06:49:06.379Z,33.56
2019-03-04T06:50:06.369Z,32.46
2019-03-04T06:51:06.368Z,32.76
2019-03-04T06:52:06.341Z,32.86
2019-03-04T06:53:06.427Z,32.37
2019-03-04T06:54:06.438Z,32.78
2019-03-04T06:55:06.315Z,32.59
2019-03-04T06:56:06.295Z,33.09
2019-03-04T06:57:06.281Z,34.28
2019-03-04T06:58:06.273Z,34.10
2019-03-04T06:59:06.264Z,32.89
2019-03-04T07:00:06.252Z,34.40
2019-03-04T07:01:06.242Z,34.50
2019-03-04T07:02:06.230Z,33.51
2019-03-04T07:03:06.218Z,34.32
2019-03-04T07:04:06.213Z,34.00
2019-03-04T07:05:06.196Z,34.91
2019-03-04T07:06:06.189Z,34.79
2019-03-04T07:07:06.179Z,34.79
2019-03-04T07:08:06.164Z,32.37
2019-03-04T07:09:06.254Z,33.28
2019-03-04T07:10:06.146Z,33.18
2019-03-04T07:11:06.134Z,32.17
2019-03-04T07:12:06.130Z,32.67
2019-03-04T07:13:06.111Z,32.89
2019-03-04T07:14:06.106Z,32.50
2019-03-04T07:15:06.132Z,32.81
2019-03-04T07:16:06.082Z,33.51
2019-03-04T07:17:06.074Z,34.02
2019-03-04T07:18:06.060Z,34.62
2019-03-04T07:19:06.078Z,32.50
2019-03-04T07:20:06.038Z,33.31
2019-03-04T07:21:05.949Z,34.02
2019-03-04T07:22:06.019Z,32.91
2019-03-04T07:23:06.058Z,35.43
2019-03-04T07:24:05.996Z,35.21
2019-03-04T07:25:05.988Z,34.19
2019-03-04T07:26:05.976Z,32.47
2019-03-04T07:27:05.998Z,32.49
2019-03-04T07:28:05.950Z,33.39
2019-03-04T07:29:05.941Z,33.30
2019-03-04T07:30:05.933Z,34.30
2019-03-04T07:31:05.916Z,35.49
2019-03-04T07:32:05.910Z,32.58
2019-03-04T07:33:05.895Z,32.78
2019-03-04T07:34:05.889Z,33.58
2019-03-04T07:35:05.876Z,34.49
2019-03-04T07:36:08.023Z,34.50
2019-03-04T07:37:05.859Z,34.62
2019-03-04T07:38:05.847Z,35.52
2019-03-04T07:39:05.835Z,34.20
2019-03-04T07:40:05.821Z,33.39
2019-03-04T07:41:05.813Z,32.27
2019-03-04T07:42:05.808Z,34.47
2019-03-04T07:43:05.869Z,32.53
2019-03-04T07:44:05.783Z,32.63
2019-03-04T07:45:05.767Z,32.41
2019-03-04T07:46:05.760Z,31.50
2019-03-04T07:47:05.747Z,31.21
2019-03-04T07:48:05.734Z,31.51
2019-03-04T07:49:05.726Z,33.62
2019-03-04T07:50:05.715Z,30.31
2019-03-04T07:51:05.702Z,31.32
2019-03-04T07:52:05.694Z,30.52
2019-03-04T07:53:05.684Z,30.52
2019-03-04T07:54:05.772Z,32.41
2019-03-04T07:55:05.661Z,29.41
2019-03-04T07:56:05.657Z,32.23
2019-03-04T07:57:05.640Z,31.21
2019-03-04T07:58:05.622Z,30.34
2019-03-04T07:59:05.614Z,32.36
2019-03-04T08:00:05.602Z,32.26
2019-03-04T08:01:05.594Z,31.27
2019-03-04T08:02:05.584Z,31.57
2019-03-04T08:03:05.573Z,37.62
2019-03-04T08:04:05.567Z,31.67
2019-03-04T08:05:05.549Z,31.65
2019-03-04T08:06:05.542Z,30.15
2019-03-04T08:07:05.527Z,30.55
2019-03-04T08:08:05.519Z,30.25
2019-03-04T08:09:05.506Z,31.07
2019-03-04T08:10:05.498Z,31.59
2019-03-04T08:11:05.487Z,35.11
2019-03-04T08:12:05.472Z,34.69
2019-03-04T08:13:05.473Z,43.54
2019-03-04T08:14:05.452Z,33.56
2019-03-04T08:15:05.446Z,31.57
2019-03-04T08:16:05.438Z,33.51
2019-03-04T08:17:05.419Z,41.06
2019-03-04T08:18:05.417Z,35.12
2019-03-04T08:19:05.399Z,40.72
2019-03-04T08:20:05.391Z,34.69
2019-03-04T08:21:05.377Z,32.47
2019-03-04T08:22:05.366Z,32.39
2019-03-04T08:23:05.358Z,37.12
2019-03-04T08:24:05.344Z,33.18
2019-03-04T08:25:05.337Z,32.47
2019-03-04T08:26:05.325Z,31.68
2019-03-04T08:27:05.314Z,33.41
2019-03-04T08:28:05.303Z,32.91
2019-03-04T08:29:05.295Z,36.33
2019-03-04T08:30:05.277Z,38.41
2019-03-04T08:31:05.272Z,33.30
2019-03-04T08:32:05.259Z,35.63
2019-03-04T08:33:05.248Z,34.50
2019-03-04T08:34:05.238Z,33.31
2019-03-04T08:35:05.226Z,33.11
2019-03-04T08:36:05.218Z,35.04
2019-03-04T08:37:05.206Z,36.05
2019-03-04T08:38:05.195Z,35.93
2019-03-04T08:39:05.183Z,36.05
2019-03-04T08:40:05.172Z,36.73
2019-03-04T08:41:05.163Z,37.04
2019-03-04T08:42:05.151Z,32.91
2019-03-04T08:43:05.139Z,33.43
2019-03-04T08:44:05.132Z,35.54
2019-03-04T08:45:05.121Z,36.84
2019-03-04T08:46:05.112Z,32.91
2019-03-04T08:47:05.100Z,34.92
2019-03-04T08:48:05.087Z,32.30
2019-03-04T08:49:05.079Z,32.50
2019-03-04T08:50:05.067Z,32.30
2019-03-04T08:51:05.059Z,33.61
2019-03-04T08:52:05.046Z,32.70
2019-03-04T08:53:05.038Z,32.52
2019-03-04T08:54:05.027Z,33.03
2019-03-04T08:55:05.414Z,33.63
2019-03-04T08:56:05.074Z,32.72
2019-03-04T08:57:04.996Z,31.70
2019-03-04T08:58:05.087Z,32.62
2019-03-04T08:59:04.974Z,35.14
2019-03-04T09:00:05.063Z,32.52
2019-03-04T09:01:04.952Z,32.70
2019-03-04T09:02:04.941Z,32.30
2019-03-04T09:03:04.930Z,34.80
2019-03-04T09:04:04.919Z,35.00
2019-03-04T09:05:04.910Z,34.38
2019-03-04T09:06:04.900Z,35.98
2019-03-04T09:07:04.891Z,34.33
2019-03-04T09:08:04.876Z,31.81
2019-03-04T09:09:04.906Z,35.00
2019-03-04T09:10:04.857Z,31.18
2019-03-04T09:11:04.849Z,29.27
2019-03-04T09:12:04.840Z,29.07
2019-03-04T09:13:04.826Z,30.18
2019-03-04T09:14:04.816Z,33.28
2019-03-04T09:15:04.870Z,29.77
2019-03-04T09:16:04.790Z,29.59
2019-03-04T09:17:04.780Z,30.60
2019-03-04T09:18:04.769Z,30.12
2019-03-04T09:19:04.757Z,30.23
2019-03-04T09:20:04.755Z,32.34
2019-03-04T09:21:04.736Z,32.34
2019-03-04T09:22:04.730Z,31.24
2019-03-04T09:23:04.720Z,32.86
2019-03-04T09:24:04.708Z,32.64
2019-03-04T09:25:04.700Z,34.66
2019-03-04T09:26:04.686Z,34.02
2019-03-04T09:27:04.677Z,34.24
2019-03-04T09:28:04.663Z,34.72
2019-03-04T09:29:04.652Z,30.23
2019-03-04T09:30:04.644Z,32.36
2019-03-04T09:31:04.633Z,31.64
2019-03-04T09:32:04.620Z,34.21
2019-03-04T09:33:04.609Z,32.14
2019-03-04T09:34:04.601Z,36.22
2019-03-04T09:35:04.585Z,38.09
2019-03-04T09:36:04.576Z,37.55
2019-03-04T09:37:05.194Z,37.16
2019-03-04T09:38:04.556Z,36.10
2019-03-04T09:39:04.542Z,34.52
2019-03-04T09:40:04.537Z,35.51
2019-03-04T09:41:04.524Z,36.56
2019-03-04T09:42:04.515Z,37.67
2019-03-04T09:43:04.506Z,40.51
2019-03-04T09:44:04.498Z,41.06
2019-03-04T09:45:04.478Z,42.10
2019-03-04T09:46:04.468Z,42.81
2019-03-04T09:47:04.456Z,43.54
2019-03-04T09:48:04.448Z,42.93
2019-03-04T09:49:04.435Z,42.85
2019-03-04T09:50:04.439Z,43.89
2019-03-04T09:51:04.418Z,43.89
2019-03-04T09:52:04.506Z,43.68
2019-03-04T09:53:04.399Z,43.79
2019-03-04T09:54:04.387Z,44.53
2019-03-04T09:55:04.378Z,43.48
2019-03-04T09:56:04.464Z,44.30
2019-03-04T09:57:04.356Z,44.73
2019-03-04T09:58:04.341Z,44.20
2019-03-04T09:59:04.344Z,45.01
2019-03-04T10:00:04.324Z,45.53
2019-03-04T10:01:04.308Z,44.99
2019-03-04T10:02:04.300Z,44.50
2019-03-04T10:03:04.294Z,45.62
2019-03-04T10:04:04.276Z,45.40
2019-03-04T10:05:04.266Z,45.12
2019-03-04T10:06:04.255Z,45.85
2019-03-04T10:07:04.250Z,45.24
2019-03-04T10:08:04.238Z,45.75
2019-03-04T10:09:04.220Z,45.95
2019-03-04T10:10:04.292Z,44.94
2019-03-04T10:11:04.258Z,45.93
2019-03-04T10:12:04.195Z,45.85
2019-03-04T10:13:04.222Z,45.83
2019-03-04T10:14:04.135Z,45.53
2019-03-04T10:15:08.474Z,45.71
2019-03-04T10:16:04.150Z,45.48
2019-03-04T10:17:04.230Z,47.01
2019-03-04T10:18:04.131Z,45.99
2019-03-04T10:19:04.150Z,45.30
2019-03-04T10:20:04.108Z,45.83
2019-03-04T10:21:04.098Z,46.03
2019-03-04T10:22:04.088Z,46.42
2019-03-04T10:23:04.081Z,45.71
2019-03-04T10:24:04.067Z,45.53
2019-03-04T10:25:04.056Z,44.40
2019-03-04T10:26:04.044Z,44.91
2019-03-04T10:27:04.035Z,45.14
2019-03-04T10:28:04.023Z,44.91
2019-03-04T10:29:04.312Z,45.32
2019-03-04T10:30:04.005Z,45.42
2019-03-04T10:31:03.990Z,44.91
2019-03-04T10:32:03.984Z,45.30
2019-03-04T10:33:03.977Z,45.48
2019-03-04T10:34:03.962Z,44.77
2019-03-04T10:35:03.951Z,44.24
2019-03-04T10:36:04.240Z,44.46
2019-03-04T10:37:03.927Z,44.67
2019-03-04T10:38:03.931Z,45.28
2019-03-04T10:39:03.907Z,45.69
2019-03-04T10:40:03.904Z,45.79
2019-03-04T10:41:03.886Z,44.26
2019-03-04T10:42:03.881Z,44.85
2019-03-04T10:43:03.866Z,45.48
2019-03-04T10:44:03.858Z,44.95
2019-03-04T10:45:03.859Z,44.44
2019-03-04T10:46:03.841Z,45.15
2019-03-04T10:47:03.828Z,44.62
2019-03-04T10:48:03.818Z,45.23
2019-03-04T10:49:03.811Z,44.81
2019-03-04T10:50:03.794Z,44.50
2019-03-04T10:51:03.778Z,42.89
2019-03-04T10:52:03.769Z,43.38
2019-03-04T10:53:04.013Z,44.01
2019-03-04T10:54:03.758Z,44.30
2019-03-04T10:55:03.743Z,43.79
2019-03-04T10:56:03.731Z,43.59
2019-03-04T10:57:03.722Z,44.09
2019-03-04T10:58:03.706Z,43.38
2019-03-04T10:59:03.710Z,43.18
2019-03-04T11:00:03.684Z,43.48
2019-03-04T11:01:03.686Z,43.50
2019-03-04T11:02:03.663Z,44.20
2019-03-04T11:03:03.660Z,44.09
2019-03-04T11:04:03.645Z,44.00
2019-03-04T11:05:03.637Z,44.00
2019-03-04T11:06:03.622Z,42.77
2019-03-04T11:07:03.618Z,43.59
2019-03-04T11:08:03.604Z,43.89
2019-03-04T11:09:03.599Z,43.50
2019-03-04T11:10:03.584Z,44.32
2019-03-04T11:11:03.569Z,44.83
2019-03-04T11:12:03.568Z,44.62
2019-03-04T11:13:03.550Z,44.91
2019-03-04T11:14:03.538Z,45.34
2019-03-04T11:15:03.527Z,45.54
2019-03-04T11:16:03.516Z,45.64
2019-03-04T11:17:03.528Z,46.56
2019-03-04T11:18:03.498Z,45.64
2019-03-04T11:19:03.496Z,45.64
2019-03-04T11:20:03.477Z,45.64
2019-03-04T11:21:03.469Z,44.83
2019-03-04T11:22:03.457Z,44.83
2019-03-04T11:23:03.445Z,45.31
2019-03-04T11:24:03.438Z,45.03
2019-03-04T11:25:03.426Z,45.14
2019-03-04T11:26:03.416Z,45.42
2019-03-04T11:27:03.401Z,45.11
2019-03-04T11:28:03.388Z,44.91
2019-03-04T11:29:03.380Z,45.42
2019-03-04T11:30:03.373Z,45.31
2019-03-04T11:31:03.362Z,45.52
2019-03-04T11:32:03.353Z,45.11
2019-03-04T11:33:03.954Z,44.99
2019-03-04T11:34:03.331Z,43.97
2019-03-04T11:35:03.391Z,44.61
2019-03-04T11:36:03.309Z,44.61
2019-03-04T11:37:03.297Z,45.11
2019-03-04T11:38:03.289Z,45.62
2019-03-04T11:39:03.368Z,45.40
2019-03-04T11:40:03.272Z,45.07
2019-03-04T11:41:03.264Z,44.76
2019-03-04T11:42:03.251Z,45.17
2019-03-04T11:43:03.239Z,44.89
2019-03-04T11:44:03.226Z,46.31
2019-03-04T11:45:03.216Z,45.30
2019-03-04T11:46:03.202Z,45.60
2019-03-04T11:47:03.192Z,46.24
2019-03-04T11:48:03.183Z,47.25
2019-03-04T11:49:03.178Z,45.93
2019-03-04T11:50:03.161Z,47.23
2019-03-04T11:51:03.149Z,47.13
2019-03-04T11:52:03.144Z,46.72
2019-03-04T11:53:03.134Z,45.62
2019-03-04T11:54:03.523Z,45.72
2019-03-04T11:55:03.104Z,46.46
2019-03-04T11:56:03.095Z,46.77
2019-03-04T11:57:03.080Z,47.19
2019-03-04T11:58:03.071Z,48.11
2019-03-04T11:59:03.063Z,47.01
2019-03-04T12:00:03.053Z,46.40
2019-03-04T12:01:03.049Z,47.32
2019-03-04T12:02:03.032Z,47.72
2019-03-04T12:03:03.022Z,47.42
2019-03-04T12:04:03.008Z,48.01
2019-03-04T12:05:02.998Z,49.72
2019-03-04T12:06:02.988Z,46.44
2019-03-04T12:07:02.980Z,46.15
2019-03-04T12:08:02.969Z,46.25
2019-03-04T12:09:02.957Z,45.67
2019-03-04T12:10:02.944Z,46.78
2019-03-04T12:11:02.935Z,46.60
2019-03-04T12:12:02.921Z,47.32
2019-03-04T12:13:02.910Z,48.01
2019-03-04T12:14:03.317Z,47.15
2019-03-04T12:15:02.890Z,46.41
2019-03-04T12:16:02.880Z,46.88
2019-03-04T12:17:02.865Z,44.93
2019-03-04T12:18:02.860Z,44.64
2019-03-04T12:19:02.849Z,46.55
2019-03-04T12:20:02.838Z,47.73
2019-03-04T12:21:02.827Z,46.67
2019-03-04T12:22:02.813Z,45.73
2019-03-04T12:23:02.802Z,47.82
2019-03-04T12:24:02.793Z,46.05
2019-03-04T12:25:02.784Z,44.70
2019-03-04T12:26:02.773Z,44.70
2019-03-04T12:27:02.764Z,44.17
2019-03-04T12:28:02.754Z,44.35
2019-03-04T12:29:02.740Z,43.64
2019-03-04T12:30:02.728Z,42.91
2019-03-04T12:31:02.721Z,40.51
2019-03-04T12:32:02.706Z,41.87
2019-03-04T12:33:02.695Z,42.23
2019-03-04T12:34:02.686Z,44.86
2019-03-04T12:35:02.680Z,43.85
2019-03-04T12:36:02.666Z,46.58
2019-03-04T12:37:02.652Z,45.85
2019-03-04T12:38:02.742Z,46.24
2019-03-04T12:39:02.634Z,45.50
2019-03-04T12:40:02.624Z,43.78
2019-03-04T12:41:02.611Z,43.38
2019-03-04T12:42:02.599Z,41.68
2019-03-04T12:43:02.591Z,42.43
2019-03-04T12:44:02.649Z,42.98
2019-03-04T12:45:02.475Z,43.62
2019-03-04T12:46:02.474Z,45.29
2019-03-04T12:47:02.554Z,45.52
2019-03-04T12:48:02.536Z,46.66
2019-03-04T12:49:02.491Z,46.37
2019-03-04T12:50:02.511Z,47.39
2019-03-04T12:51:02.511Z,48.51
2019-03-04T12:52:02.496Z,47.51
2019-03-04T12:53:02.480Z,47.69
2019-03-04T12:54:02.477Z,48.02